Time;durP1;ratioP1;P1;durP2;ratioP2;P2;SDS_P1;SDS_P2;PMS_P1;PMS_P2;Temp;Humidity;BMP_temperature;BMP_pressure;BME280_temperature;BME280_humidity;BME280_pressure;Samples;Min_cycle;Max_cycle;Signal;HPM_P1;HPM_P2
2022/01/10 00:00:31;;;;;;;16.70;8.85;;;4.30;99.90;;;;;;5055823;28;20166;-46
2022/01/10 00:02:58;;;;;;;17.80;7.78;;;4.30;99.90;;;;;;5056413;28;20032;-50
2022/01/10 00:05:24;;;;;;;17.27;7.88;;;4.30;99.90;;;;;;5056100;28;20096;-45
2022/01/10 00:07:50;;;;;;;14.65;6.85;;;4.30;99.90;;;;;;5055629;28;20044;-51
2022/01/10 00:10:18;;;;;;;14.23;6.50;;;4.30;99.90;;;;;;5070241;28;20035;-51
2022/01/10 00:12:43;;;;;;;16.08;6.57;;;4.30;99.90;;;;;;5055668;28;20488;-48
2022/01/10 00:15:11;;;;;;;13.13;6.90;;;4.30;99.90;;;;;;5053130;28;20119;-46
2022/01/10 00:17:38;;;;;;;14.32;6.72;;;4.30;99.90;;;;;;5055285;28;20484;-47
2022/01/10 00:20:09;;;;;;;12.10;6.43;;;4.30;99.90;;;;;;5055686;28;20044;-45
2022/01/10 00:22:36;;;;;;;13.75;7.22;;;4.30;99.90;;;;;;5053220;28;20078;-51
2022/01/10 00:25:02;;;;;;;14.48;7.55;;;4.20;99.90;;;;;;5055289;28;20017;-45
2022/01/10 00:27:28;;;;;;;17.70;7.85;;;4.20;99.90;;;;;;5055823;28;20035;-49
2022/01/10 00:29:53;;;;;;;11.45;6.50;;;4.20;99.90;;;;;;5055790;28;20484;-48
2022/01/10 00:32:19;;;;;;;12.35;6.68;;;4.10;99.90;;;;;;5038901;28;20095;-49
2022/01/10 00:34:45;;;;;;;12.63;6.47;;;4.10;99.90;;;;;;5074269;28;20028;-48
2022/01/10 00:37:10;;;;;;;12.57;6.70;;;4.10;99.90;;;;;;5056477;28;20024;-44
2022/01/10 00:39:36;;;;;;;12.30;7.28;;;4.10;99.90;;;;;;5073939;28;20542;-47
2022/01/10 00:42:01;;;;;;;11.57;6.35;;;4.10;99.90;;;;;;5056361;28;20021;-47
2022/01/10 00:44:31;;;;;;;14.35;8.10;;;4.10;99.90;;;;;;5056132;28;20506;-47
2022/01/10 00:46:57;;;;;;;14.02;7.35;;;4.20;99.90;;;;;;5055698;28;20036;-46
2022/01/10 00:49:22;;;;;;;14.57;6.68;;;4.30;99.90;;;;;;5055001;28;20054;-46
2022/01/10 00:51:48;;;;;;;19.83;8.57;;;4.20;99.90;;;;;;5073924;28;20024;-45
2022/01/10 00:54:13;;;;;;;12.20;6.50;;;4.20;99.90;;;;;;5055041;28;20044;-48
2022/01/10 00:56:39;;;;;;;12.40;7.00;;;4.10;99.90;;;;;;5055867;28;20017;-50
2022/01/10 00:59:05;;;;;;;14.70;6.95;;;4.10;99.90;;;;;;5055763;28;20127;-47
2022/01/10 01:01:30;;;;;;;16.70;7.68;;;4.10;99.90;;;;;;5072439;28;20369;-48
2022/01/10 01:03:56;;;;;;;11.02;6.82;;;4.10;99.90;;;;;;5056083;28;20091;-45
2022/01/10 01:06:21;;;;;;;12.77;7.65;;;4.00;99.90;;;;;;5055264;28;20028;-46
2022/01/10 01:08:47;;;;;;;15.60;6.60;;;4.00;99.90;;;;;;5055645;28;20036;-46
2022/01/10 01:14:09;;;;;;;16.48;7.93;;;3.90;99.90;;;;;;5044263;28;20033;-49
2022/01/10 01:19:29;;;;;;;13.60;6.55;;;4.10;99.90;;;;;;5055438;28;20112;-47
2022/01/10 01:24:34;;;;;;;13.32;6.70;;;4.20;99.90;;;;;;5073798;28;20124;-52
2022/01/10 01:27:00;;;;;;;15.43;8.25;;;4.20;99.90;;;;;;5055271;28;20060;-46
2022/01/10 01:29:29;;;;;;;19.13;7.60;;;4.20;99.90;;;;;;5054745;28;20037;-48
2022/01/10 01:31:55;;;;;;;13.40;6.97;;;4.20;99.90;;;;;;5055081;28;20531;-48
2022/01/10 01:34:23;;;;;;;17.35;7.40;;;4.20;99.90;;;;;;5053987;28;20032;-46
2022/01/10 01:36:52;;;;;;;12.43;6.47;;;4.20;99.90;;;;;;5053815;28;20404;-47
2022/01/10 01:39:22;;;;;;;23.48;12.00;;;4.20;99.90;;;;;;5053692;28;20028;-48
2022/01/10 01:41:50;;;;;;;26.02;13.50;;;4.20;99.90;;;;;;5054970;28;20020;-50
2022/01/10 01:44:16;;;;;;;15.00;8.07;;;4.20;99.90;;;;;;5055465;28;20035;-44
2022/01/10 01:46:43;;;;;;;13.25;6.70;;;4.20;99.90;;;;;;5038232;28;20025;-49
2022/01/10 01:49:10;;;;;;;15.45;8.13;;;4.20;99.90;;;;;;5054958;28;20024;-45
2022/01/10 01:51:36;;;;;;;13.13;7.47;;;4.20;99.90;;;;;;5055140;28;20020;-45
2022/01/10 01:54:03;;;;;;;18.05;7.93;;;4.30;99.90;;;;;;5055001;28;20476;-45
2022/01/10 01:56:29;;;;;;;14.00;7.82;;;4.20;99.90;;;;;;5054863;28;20025;-44
2022/01/10 01:58:57;;;;;;;21.13;8.02;;;4.20;99.90;;;;;;5055090;28;20031;-44
2022/01/10 02:01:24;;;;;;;15.95;7.53;;;4.20;99.90;;;;;;5054691;28;20029;-47
2022/01/10 02:03:51;;;;;;;19.45;8.15;;;4.20;99.90;;;;;;5054916;28;20086;-49
2022/01/10 02:06:17;;;;;;;15.40;8.55;;;4.20;99.90;;;;;;5072695;28;20044;-45
2022/01/10 02:08:42;;;;;;;17.40;8.77;;;4.10;99.90;;;;;;5054664;28;20426;-48
2022/01/10 02:11:11;;;;;;;12.73;7.85;;;4.20;99.90;;;;;;5054361;28;20024;-46
2022/01/10 02:13:37;;;;;;;11.85;8.10;;;4.20;99.90;;;;;;5054784;28;20025;-45
2022/01/10 02:16:06;;;;;;;19.80;9.60;;;4.10;99.90;;;;;;5054312;28;20020;-46
2022/01/10 02:18:32;;;;;;;18.63;8.57;;;4.10;99.90;;;;;;5054417;28;20029;-44
2022/01/10 02:21:01;;;;;;;18.00;9.02;;;4.00;99.90;;;;;;5053957;28;20043;-45
2022/01/10 02:23:28;;;;;;;17.25;8.35;;;4.00;99.90;;;;;;5054675;28;20082;-46
2022/01/10 02:25:54;;;;;;;13.73;8.52;;;4.00;99.90;;;;;;5054519;28;20060;-45
2022/01/10 02:28:20;;;;;;;15.35;8.73;;;4.00;99.90;;;;;;5054185;28;20056;-47
2022/01/10 02:30:46;;;;;;;15.65;8.27;;;3.90;99.90;;;;;;5053688;28;20028;-44
2022/01/10 02:33:11;;;;;;;16.73;9.25;;;3.90;99.90;;;;;;5054355;28;20069;-50
2022/01/10 02:35:55;;;;;;;13.02;7.43;;;3.90;99.90;;;;;;5054277;28;20079;-49
2022/01/10 02:38:21;;;;;;;15.07;7.68;;;3.90;99.90;;;;;;5054094;28;20025;-49
2022/01/10 02:40:48;;;;;;;13.95;8.32;;;4.00;99.90;;;;;;5071740;28;20032;-45
2022/01/10 02:43:14;;;;;;;24.05;8.18;;;4.00;99.90;;;;;;5054009;28;20069;-48
2022/01/10 02:45:39;;;;;;;12.38;6.97;;;4.10;99.90;;;;;;5037604;28;20501;-51
2022/01/10 02:48:05;;;;;;;15.90;7.43;;;4.10;99.90;;;;;;5053972;28;20516;-46
2022/01/10 02:50:31;;;;;;;17.40;8.10;;;4.20;99.90;;;;;;5053402;28;20020;-46
2022/01/10 02:52:56;;;;;;;12.32;7.53;;;4.20;99.90;;;;;;5053928;28;20116;-45
2022/01/10 02:55:22;;;;;;;16.25;7.50;;;4.20;99.90;;;;;;5037436;28;20028;-45
2022/01/10 02:57:48;;;;;;;11.85;7.10;;;4.20;99.90;;;;;;5071831;28;20033;-46
2022/01/10 03:00:20;;;;;;;12.90;7.35;;;4.20;99.90;;;;;;5053578;28;20031;-48
2022/01/10 03:02:51;;;;;;;12.90;8.48;;;4.10;99.90;;;;;;5071652;28;20047;-49
2022/01/10 03:05:18;;;;;;;13.68;7.72;;;4.10;99.90;;;;;;5053520;28;20487;-49
2022/01/10 03:07:51;;;;;;;20.08;7.93;;;4.10;99.90;;;;;;5053632;28;20024;-48
2022/01/10 03:10:17;;;;;;;21.60;8.70;;;4.10;99.90;;;;;;5053418;28;20441;-45
2022/01/10 03:12:43;;;;;;;12.90;7.65;;;4.10;99.90;;;;;;5053806;28;20089;-46
2022/01/10 03:15:10;;;;;;;13.95;8.20;;;4.20;99.90;;;;;;5053565;28;20025;-45
2022/01/10 03:17:37;;;;;;;15.98;8.82;;;4.20;99.90;;;;;;5053403;28;20059;-45
2022/01/10 03:20:05;;;;;;;19.20;8.10;;;4.10;99.90;;;;;;5053233;28;20032;-45
2022/01/10 03:22:31;;;;;;;13.63;8.82;;;4.00;99.90;;;;;;5053488;28;20021;-47
2022/01/10 03:24:58;;;;;;;19.30;7.88;;;4.00;99.90;;;;;;5036892;28;20058;-45
2022/01/10 03:27:24;;;;;;;13.95;9.10;;;4.00;99.90;;;;;;5053375;28;20085;-46
2022/01/10 03:29:50;;;;;;;14.27;8.05;;;4.00;99.90;;;;;;5052901;28;20051;-45
2022/01/10 03:32:16;;;;;;;14.63;9.70;;;4.00;99.90;;;;;;5053354;28;20025;-50
2022/01/10 03:34:42;;;;;;;19.88;9.13;;;4.00;99.90;;;;;;5053350;28;20035;-46
2022/01/10 03:37:08;;;;;;;23.55;10.63;;;4.00;99.90;;;;;;5053375;28;20016;-46
2022/01/10 03:39:35;;;;;;;16.65;9.13;;;3.90;99.90;;;;;;5053009;28;20036;-48
2022/01/10 03:42:00;;;;;;;18.80;9.32;;;4.00;99.90;;;;;;5053311;28;20021;-45
2022/01/10 03:44:26;;;;;;;13.32;7.80;;;4.00;99.90;;;;;;5071249;28;20025;-50
2022/01/10 03:46:52;;;;;;;16.05;9.10;;;3.90;99.90;;;;;;5053076;28;20154;-45
2022/01/10 03:49:17;;;;;;;14.27;8.68;;;3.90;99.90;;;;;;5052854;28;20021;-51
2022/01/10 03:51:43;;;;;;;17.17;8.95;;;3.90;99.90;;;;;;5071379;28;20074;-48
2022/01/10 03:54:08;;;;;;;14.10;8.95;;;3.90;99.90;;;;;;5053301;28;20017;-46
2022/01/10 03:56:34;;;;;;;15.48;9.18;;;3.80;99.90;;;;;;5053073;28;20047;-50
2022/01/10 03:59:00;;;;;;;11.05;8.05;;;3.90;99.90;;;;;;5053027;28;20028;-51
2022/01/10 04:01:25;;;;;;;10.68;8.15;;;3.80;99.90;;;;;;5052742;28;20029;-46
2022/01/10 04:03:52;;;;;;;14.68;8.43;;;3.80;99.90;;;;;;5053123;28;20024;-45
2022/01/10 04:06:18;;;;;;;19.45;8.15;;;3.80;99.90;;;;;;5052725;28;20047;-52
2022/01/10 04:08:44;;;;;;;18.85;9.15;;;3.80;99.90;;;;;;5053035;28;20112;-51
2022/01/10 04:11:10;;;;;;;16.63;9.40;;;3.80;99.90;;;;;;5052663;28;20114;-47
2022/01/10 04:13:36;;;;;;;13.45;8.35;;;3.70;99.90;;;;;;5052932;28;20032;-47
2022/01/10 04:16:02;;;;;;;13.50;9.20;;;3.80;99.90;;;;;;5070916;28;20021;-43
2022/01/10 04:18:27;;;;;;;12.00;8.15;;;3.80;99.90;;;;;;5052874;28;20488;-46
2022/01/10 04:20:53;;;;;;;18.13;8.10;;;3.80;99.90;;;;;;5052498;28;20028;-42
2022/01/10 04:23:19;;;;;;;18.15;8.88;;;3.80;99.90;;;;;;5052822;28;20121;-48
2022/01/10 04:25:45;;;;;;;15.60;8.73;;;3.80;99.90;;;;;;5053023;28;20543;-45
2022/01/10 04:28:10;;;;;;;12.77;8.70;;;3.80;99.90;;;;;;5052696;28;20052;-44
2022/01/10 04:30:36;;;;;;;13.95;8.40;;;3.80;99.90;;;;;;5052456;28;20108;-44
2022/01/10 04:33:02;;;;;;;12.25;8.32;;;3.80;99.90;;;;;;5052679;28;20027;-44
2022/01/10 04:35:29;;;;;;;17.13;8.45;;;3.80;99.90;;;;;;5052941;28;20020;-47
2022/01/10 04:37:55;;;;;;;19.30;8.95;;;3.80;99.90;;;;;;5056161;28;20161;-44
2022/01/10 04:40:21;;;;;;;21.10;10.93;;;3.80;99.90;;;;;;5055805;28;20443;-46
2022/01/10 04:42:47;;;;;;;16.05;9.48;;;3.80;99.90;;;;;;5056169;28;20028;-44
2022/01/10 04:45:13;;;;;;;14.60;8.57;;;3.70;99.90;;;;;;5056166;28;20033;-44
2022/01/10 04:47:39;;;;;;;14.25;9.77;;;3.60;99.90;;;;;;5073744;28;20126;-47
2022/01/10 04:52:44;;;;;;;15.32;8.80;;;3.50;99.90;;;;;;5073887;28;20081;-45
2022/01/10 04:55:10;;;;;;;14.43;9.65;;;3.40;99.90;;;;;;5055927;28;20089;-44
2022/01/10 04:57:36;;;;;;;14.77;9.68;;;3.40;99.90;;;;;;5055568;28;20016;-43
2022/01/10 05:00:04;;;;;;;15.88;9.52;;;3.30;99.90;;;;;;5055568;28;20058;-47
2022/01/10 05:02:29;;;;;;;16.85;9.02;;;3.30;99.90;;;;;;5055653;28;20027;-47
2022/01/10 05:04:55;;;;;;;16.75;8.43;;;3.20;99.90;;;;;;5055307;28;20111;-43
2022/01/10 05:07:20;;;;;;;9.77;7.65;;;3.10;99.90;;;;;;5055705;28;20135;-44
2022/01/10 05:09:46;;;;;;;17.13;9.43;;;3.10;99.90;;;;;;5055165;28;20028;-45
2022/01/10 05:12:12;;;;;;;14.27;7.95;;;3.00;99.90;;;;;;5055615;28;20469;-46
2022/01/10 05:14:39;;;;;;;13.38;8.85;;;2.90;99.90;;;;;;5055628;28;20028;-45
2022/01/10 05:17:04;;;;;;;12.85;8.57;;;2.90;99.90;;;;;;5055589;28;20055;-43
2022/01/10 05:19:30;;;;;;;14.07;9.10;;;2.80;99.90;;;;;;5073541;28;20051;-43
2022/01/10 05:21:56;;;;;;;13.98;8.07;;;2.90;99.90;;;;;;5055947;28;20035;-48
2022/01/10 05:24:21;;;;;;;15.18;9.02;;;2.80;99.90;;;;;;5073976;28;20025;-45
2022/01/10 05:26:47;;;;;;;14.77;9.55;;;2.80;99.90;;;;;;5073649;28;20025;-44
2022/01/10 05:29:12;;;;;;;14.05;8.88;;;2.80;99.90;;;;;;5072905;28;20476;-44
2022/01/10 05:31:38;;;;;;;13.20;8.50;;;2.70;99.90;;;;;;5055200;28;20016;-46
2022/01/10 05:34:03;;;;;;;14.38;8.75;;;2.70;99.90;;;;;;5055328;28;20516;-45
2022/01/10 05:36:29;;;;;;;14.60;8.82;;;2.70;99.90;;;;;;5055447;28;20430;-46
2022/01/10 05:38:56;;;;;;;16.23;8.93;;;2.60;99.90;;;;;;5055090;28;20024;-46
2022/01/10 05:41:22;;;;;;;13.80;8.43;;;2.60;99.90;;;;;;5055247;28;20036;-43
2022/01/10 05:43:48;;;;;;;12.93;8.55;;;2.60;99.90;;;;;;5055455;28;20024;-44
2022/01/10 05:46:19;;;;;;;17.13;9.55;;;2.60;99.90;;;;;;5054346;28;20120;-45
2022/01/10 05:48:47;;;;;;;15.55;8.90;;;2.90;99.90;;;;;;5078027;22;20044;-45
2022/01/10 05:51:14;;;;;;;12.05;8.13;;;2.60;99.90;;;;;;5054281;28;20231;-44
2022/01/10 05:53:39;;;;;;;12.73;8.20;;;2.50;99.90;;;;;;5055270;28;20016;-47
2022/01/10 05:56:05;;;;;;;10.52;7.55;;;2.50;99.90;;;;;;5055067;28;20032;-46
2022/01/10 05:58:30;;;;;;;12.50;7.70;;;2.40;99.90;;;;;;5054738;28;20024;-46
2022/01/10 06:00:56;;;;;;;9.32;7.13;;;2.40;99.90;;;;;;5072744;28;20063;-46
2022/01/10 06:03:22;;;;;;;14.57;8.15;;;2.30;99.90;;;;;;5072738;28;20484;-51
2022/01/10 06:05:47;;;;;;;14.65;8.55;;;2.30;99.90;;;;;;5054478;28;20028;-47
2022/01/10 06:08:13;;;;;;;14.35;8.63;;;2.30;99.90;;;;;;5054538;28;20044;-45
2022/01/10 06:10:39;;;;;;;19.77;10.10;;;2.30;99.90;;;;;;5054250;28;20063;-45
2022/01/10 06:13:05;;;;;;;18.38;10.38;;;2.30;99.90;;;;;;5054610;28;20377;-43
2022/01/10 06:15:30;;;;;;;15.02;10.45;;;2.30;99.90;;;;;;5072565;28;20055;-48
2022/01/10 06:17:57;;;;;;;15.93;9.32;;;2.30;99.90;;;;;;5054861;28;20391;-45
2022/01/10 06:20:23;;;;;;;12.90;8.52;;;2.30;99.90;;;;;;5054622;28;20036;-49
2022/01/10 06:22:48;;;;;;;16.77;11.13;;;2.20;99.90;;;;;;5054691;28;20036;-45
2022/01/10 06:25:19;;;;;;;21.38;12.73;;;2.30;99.90;;;;;;5054475;28;20020;-43
2022/01/10 06:27:44;;;;;;;21.02;13.85;;;2.30;99.90;;;;;;5054079;28;20024;-47
2022/01/10 06:30:11;;;;;;;22.70;16.45;;;2.30;99.90;;;;;;5071996;28;20082;-46
2022/01/10 06:32:36;;;;;;;17.35;12.73;;;2.30;99.90;;;;;;5054273;28;20055;-47
2022/01/10 06:35:02;;;;;;;13.27;10.10;;;2.30;99.90;;;;;;5037968;28;20032;-45
2022/01/10 06:37:28;;;;;;;17.65;11.88;;;2.20;99.90;;;;;;5054250;28;20029;-45
2022/01/10 06:39:54;;;;;;;18.98;13.52;;;2.20;99.90;;;;;;5053726;28;20028;-46
2022/01/10 06:42:20;;;;;;;20.52;12.65;;;2.20;99.90;;;;;;5054019;28;20028;-44
2022/01/10 06:44:46;;;;;;;16.27;11.82;;;2.20;99.90;;;;;;5071930;28;20032;-44
2022/01/10 06:47:11;;;;;;;23.95;11.88;;;2.10;99.90;;;;;;5071864;28;20032;-43
2022/01/10 06:49:37;;;;;;;18.65;12.88;;;2.20;99.90;;;;;;5053743;28;20119;-46
2022/01/10 06:52:04;;;;;;;20.08;12.68;;;2.20;99.90;;;;;;5053889;28;20021;-45
2022/01/10 06:54:29;;;;;;;59.78;49.80;;;2.20;99.90;;;;;;5053668;28;20028;-43
2022/01/10 06:56:58;;;;;;;42.25;34.95;;;2.30;99.90;;;;;;5071512;28;20064;-44
2022/01/10 06:59:27;;;;;;;35.38;26.92;;;2.20;99.90;;;;;;5052759;28;20060;-43
2022/01/10 07:01:55;;;;;;;22.33;15.77;;;2.20;99.90;;;;;;5054351;28;20038;-49
2022/01/10 07:04:21;;;;;;;21.88;16.02;;;2.20;99.90;;;;;;5053777;28;20021;-44
2022/01/10 07:06:47;;;;;;;29.02;20.55;;;2.20;99.90;;;;;;5053036;28;20028;-44
2022/01/10 07:09:13;;;;;;;21.25;15.30;;;2.20;99.90;;;;;;5053353;28;20097;-42
2022/01/10 07:11:39;;;;;;;18.98;12.25;;;2.20;99.90;;;;;;5053602;28;20016;-44
2022/01/10 07:14:05;;;;;;;19.27;11.55;;;2.20;99.90;;;;;;5053489;28;20024;-44
2022/01/10 07:16:31;;;;;;;15.77;10.68;;;2.20;99.90;;;;;;5053565;28;20017;-48
2022/01/10 07:18:57;;;;;;;16.85;11.25;;;2.20;99.90;;;;;;5053436;28;20027;-44
2022/01/10 07:21:23;;;;;;;16.65;10.73;;;2.30;99.90;;;;;;5053157;28;20029;-43
2022/01/10 07:23:49;;;;;;;16.15;10.98;;;2.30;99.90;;;;;;5071384;28;20081;-44
2022/01/10 07:26:15;;;;;;;20.20;10.82;;;2.30;99.90;;;;;;5036964;28;20035;-43
2022/01/10 07:28:41;;;;;;;17.42;10.70;;;2.30;99.90;;;;;;5036925;28;20029;-46
2022/01/10 07:31:07;;;;;;;14.60;10.23;;;2.30;99.90;;;;;;5071163;28;20502;-48
2022/01/10 07:33:33;;;;;;;17.23;10.13;;;2.30;99.90;;;;;;5053585;28;20047;-43
2022/01/10 07:35:58;;;;;;;15.15;10.93;;;2.30;99.90;;;;;;5053387;28;20033;-44
2022/01/10 07:38:24;;;;;;;15.13;10.02;;;2.30;99.90;;;;;;5053377;28;20045;-42
2022/01/10 07:40:50;;;;;;;25.55;11.18;;;2.30;99.90;;;;;;5053098;28;20392;-45
2022/01/10 07:43:16;;;;;;;19.50;11.00;;;2.30;99.90;;;;;;5036804;28;20468;-46
2022/01/10 07:45:41;;;;;;;18.52;10.85;;;2.30;99.90;;;;;;5053382;28;20024;-46
2022/01/10 07:48:07;;;;;;;15.73;10.32;;;2.30;99.90;;;;;;5053106;28;20033;-47
2022/01/10 07:50:33;;;;;;;30.20;12.23;;;2.40;99.90;;;;;;5052767;28;20025;-44
2022/01/10 07:52:58;;;;;;;13.88;10.80;;;2.30;99.90;;;;;;5053488;28;20074;-46
2022/01/10 07:55:24;;;;;;;23.45;12.20;;;2.40;99.90;;;;;;5071361;28;20044;-45
2022/01/10 07:57:50;;;;;;;23.88;13.52;;;2.40;99.90;;;;;;5053251;28;20086;-44
2022/01/10 08:00:15;;;;;;;24.90;15.20;;;2.40;99.90;;;;;;5052953;28;20021;-44
2022/01/10 08:02:41;;;;;;;26.60;16.35;;;2.40;99.90;;;;;;5053200;28;20021;-46
2022/01/10 08:05:09;;;;;;;25.42;14.82;;;2.50;99.90;;;;;;5071077;28;20052;-44
2022/01/10 08:07:35;;;;;;;30.35;17.08;;;2.50;99.90;;;;;;5071265;28;20035;-49
2022/01/10 08:10:03;;;;;;;28.38;15.90;;;2.40;99.90;;;;;;5071880;28;20033;-45
2022/01/10 08:12:28;;;;;;;22.02;13.60;;;2.40;99.90;;;;;;5056950;28;20102;-47
2022/01/10 08:14:54;;;;;;;20.98;13.50;;;2.50;99.90;;;;;;5060192;28;20059;-44
2022/01/10 08:17:19;;;;;;;21.77;12.40;;;2.50;99.90;;;;;;5057117;28;20047;-47
2022/01/10 08:19:45;;;;;;;22.23;12.52;;;2.50;99.90;;;;;;5061629;28;20480;-44
2022/01/10 08:22:11;;;;;;;25.73;13.80;;;2.50;99.90;;;;;;5073693;28;20024;-53
2022/01/10 08:24:36;;;;;;;18.77;12.20;;;2.50;99.90;;;;;;5058191;28;20123;-52
2022/01/10 08:27:02;;;;;;;24.52;12.60;;;2.50;99.90;;;;;;5057021;28;20111;-51
2022/01/10 08:29:29;;;;;;;23.85;12.52;;;2.50;99.90;;;;;;5056379;28;20025;-52
2022/01/10 08:31:55;;;;;;;26.95;14.38;;;2.50;99.90;;;;;;5073829;28;20430;-47
2022/01/10 08:34:21;;;;;;;20.90;12.57;;;2.50;99.90;;;;;;5074337;28;20017;-46
2022/01/10 08:36:47;;;;;;;18.67;12.50;;;2.50;99.90;;;;;;5067588;28;20436;-46
2022/01/10 08:39:13;;;;;;;20.95;13.18;;;2.50;99.90;;;;;;5055658;28;20071;-50
2022/01/10 08:41:39;;;;;;;18.25;12.55;;;2.60;99.90;;;;;;5056066;28;20025;-45
2022/01/10 08:44:06;;;;;;;18.88;12.30;;;2.60;99.90;;;;;;5056217;28;20031;-45
2022/01/10 08:46:32;;;;;;;19.48;12.32;;;2.60;99.90;;;;;;5065241;28;20032;-47
2022/01/10 08:48:58;;;;;;;20.17;12.07;;;2.70;99.90;;;;;;5072513;28;20024;-49
2022/01/10 08:51:24;;;;;;;15.68;11.57;;;2.70;99.90;;;;;;5072394;28;20484;-45
2022/01/10 08:53:50;;;;;;;17.45;11.40;;;2.70;99.90;;;;;;5072086;28;20024;-47
2022/01/10 08:56:16;;;;;;;24.23;11.60;;;2.70;99.90;;;;;;5055394;28;20024;-47
2022/01/10 08:58:42;;;;;;;18.38;11.45;;;2.70;99.90;;;;;;5054784;28;20078;-49
2022/01/10 09:01:07;;;;;;;16.90;11.13;;;2.70;99.90;;;;;;5055929;28;20492;-44
2022/01/10 09:03:34;;;;;;;18.55;11.20;;;2.70;99.90;;;;;;5055544;28;20040;-42
2022/01/10 09:06:00;;;;;;;22.15;11.68;;;2.70;99.90;;;;;;5055724;28;20110;-46
2022/01/10 09:08:31;;;;;;;18.15;12.57;;;;;;;;;;5056112;28;20048;-45
2022/01/10 09:10:58;;;;;;;16.63;11.77;;;3.00;99.90;;;;;;5055388;28;20020;-46
2022/01/10 09:13:26;;;;;;;15.40;10.85;;;3.50;99.90;;;;;;5073807;28;20495;-48
2022/01/10 09:15:51;;;;;;;17.67;11.30;;;3.50;99.90;;;;;;5055885;28;20025;-51
2022/01/10 09:18:17;;;;;;;14.82;9.73;;;3.80;99.90;;;;;;5055615;28;20079;-45
2022/01/10 09:20:44;;;;;;;17.88;10.45;;;4.40;99.90;;;;;;5055042;28;20037;-46
2022/01/10 09:23:10;;;;;;;13.20;8.98;;;5.10;99.90;;;;;;5054137;28;20201;-45
2022/01/10 09:25:36;;;;;;;17.15;9.05;;;6.00;99.90;;;;;;5055794;28;20030;-45
2022/01/10 09:28:01;;;;;;;16.58;9.32;;;6.90;99.90;;;;;;5055683;28;20029;-45
2022/01/10 09:30:27;;;;;;;15.20;8.77;;;7.80;99.90;;;;;;5055440;28;20499;-48
2022/01/10 09:32:54;;;;;;;18.25;8.13;;;8.50;99.90;;;;;;5055620;28;20029;-47
2022/01/10 09:35:20;;;;;;;12.65;8.32;;;9.00;99.90;;;;;;5055420;28;20029;-47
2022/01/10 09:37:46;;;;;;;11.27;7.93;;;9.50;99.90;;;;;;5072978;28;20020;-46
2022/01/10 09:40:12;;;;;;;14.20;8.00;;;9.80;99.90;;;;;;5054973;28;20020;-49
2022/01/10 09:42:38;;;;;;;37.20;21.85;;;10.30;99.90;;;;;;5055341;28;20021;-52
2022/01/10 09:45:06;;;;;;;33.83;18.60;;;10.60;99.80;;;;;;5073190;28;20383;-49
2022/01/10 09:47:32;;;;;;;13.82;9.70;;;10.90;99.10;;;;;;5055152;28;20032;-48
2022/01/10 09:49:57;;;;;;;12.45;7.70;;;11.10;98.80;;;;;;5054793;28;20032;-50
2022/01/10 09:52:23;;;;;;;10.18;7.97;;;11.50;98.30;;;;;;5055462;28;20107;-46
2022/01/10 09:54:50;;;;;;;13.10;8.07;;;11.60;97.90;;;;;;5038867;28;20476;-45
2022/01/10 09:57:16;;;;;;;10.05;7.55;;;11.70;97.80;;;;;;5055370;28;20434;-48
2022/01/10 09:59:43;;;;;;;9.57;7.43;;;12.00;97.10;;;;;;5072885;28;20035;-48
2022/01/10 10:02:10;;;;;;;10.13;7.63;;;12.00;97.80;;;;;;5055163;28;20048;-46
2022/01/10 10:04:37;;;;;;;12.63;7.10;;;12.30;96.90;;;;;;5055273;28;20535;-47
2022/01/10 10:07:05;;;;;;;13.10;8.20;;;12.20;96.90;;;;;;5055233;28;20085;-50
2022/01/10 10:09:31;;;;;;;17.85;7.45;;;12.00;97.00;;;;;;5054468;28;20017;-43
2022/01/10 10:11:56;;;;;;;10.50;6.70;;;12.00;97.00;;;;;;5054767;28;20028;-47
2022/01/10 10:14:23;;;;;;;13.45;6.55;;;12.00;97.20;;;;;;5054781;28;20194;-47
2022/01/10 10:16:51;;;;;;;16.65;6.80;;;11.90;96.50;;;;;;5072642;28;20432;-50
2022/01/10 10:19:28;;;;;;;15.43;6.85;;;11.50;97.50;;;;;;5072365;28;20488;-47
2022/01/10 10:21:58;;;;;;;10.75;6.57;;;11.10;98.20;;;;;;5054588;28;20068;-46
2022/01/10 10:24:25;;;;;;;12.77;7.60;;;10.90;98.20;;;;;;5072588;28;20369;-46
2022/01/10 10:26:51;;;;;;;8.95;6.22;;;10.70;98.90;;;;;;5054577;28;20433;-48
2022/01/10 10:29:18;;;;;;;12.68;6.20;;;10.50;99.00;;;;;;5053971;28;20507;-46
2022/01/10 10:31:50;;;;;;;14.30;6.85;;;10.40;99.50;;;;;;5054128;28;20036;-49
2022/01/10 10:34:27;;;;;;;10.88;6.60;;;10.10;99.90;;;;;;5072077;28;20482;-47
2022/01/10 10:37:14;;;;;;;15.23;7.28;;;10.30;99.90;;;;;;5053953;28;20056;-44
2022/01/10 10:39:42;;;;;;;14.95;6.20;;;10.80;99.70;;;;;;5039666;28;20527;-49
2022/01/10 10:42:10;;;;;;;14.13;6.40;;;11.20;99.40;;;;;;5054068;28;20419;-49
2022/01/10 10:44:37;;;;;;;11.75;6.72;;;11.10;98.90;;;;;;5054044;28;20020;-48
2022/01/10 10:47:03;;;;;;;17.88;7.63;;;11.00;99.50;;;;;;5072310;28;20769;-49
2022/01/10 10:49:34;;;;;;;13.15;6.93;;;11.30;99.30;;;;;;5054263;28;20024;-44
2022/01/10 10:52:02;;;;;;;14.27;6.97;;;11.30;98.70;;;;;;5054303;28;20020;-50
2022/01/10 10:54:33;;;;;;;13.95;6.97;;;11.30;98.80;;;;;;5053835;28;20029;-47
2022/01/10 10:57:05;;;;;;;14.63;7.53;;;11.10;98.90;;;;;;5053864;28;20500;-50
2022/01/10 10:59:35;;;;;;;14.23;7.05;;;10.80;99.30;;;;;;5071393;28;20036;-46
2022/01/10 11:02:02;;;;;;;17.17;7.72;;;10.40;99.70;;;;;;5053815;28;20028;-49
2022/01/10 11:04:30;;;;;;;15.50;7.72;;;10.20;99.80;;;;;;5037052;28;20397;-47
2022/01/10 11:06:56;;;;;;;14.82;7.97;;;10.20;99.90;;;;;;5053283;28;20502;-47
2022/01/10 11:09:22;;;;;;;16.00;9.77;;;10.00;99.90;;;;;;5053263;28;20032;-43
2022/01/10 11:11:49;;;;;;;13.35;8.35;;;9.70;99.90;;;;;;5053118;28;20028;-45
2022/01/10 11:14:18;;;;;;;15.75;8.85;;;9.50;99.90;;;;;;5053431;28;20031;-46
2022/01/10 11:16:46;;;;;;;15.10;8.25;;;9.20;99.90;;;;;;5053597;28;20056;-49
2022/01/10 11:19:21;;;;;;;13.98;8.65;;;9.00;99.90;;;;;;5051169;28;20545;-49
2022/01/10 11:22:07;;;;;;;16.05;8.80;;;8.80;99.90;;;;;;5060700;28;20024;-47
2022/01/10 11:24:53;;;;;;;19.63;9.70;;;8.40;99.90;;;;;;5053445;28;20075;-49
2022/01/10 11:27:42;;;;;;;14.88;9.27;;;8.30;99.90;;;;;;5053153;28;20029;-48
2022/01/10 11:30:20;;;;;;;17.65;10.57;;;8.10;99.90;;;;;;5069750;28;20025;-45
2022/01/10 11:32:56;;;;;;;17.00;9.93;;;8.00;99.90;;;;;;5070093;28;20024;-44
2022/01/10 11:35:25;;;;;;;17.65;10.27;;;7.90;99.90;;;;;;5071647;28;20021;-46
2022/01/10 11:37:51;;;;;;;16.23;9.50;;;7.90;99.90;;;;;;5070059;28;20021;-46
2022/01/10 11:40:17;;;;;;;17.85;10.23;;;7.80;99.90;;;;;;5071518;28;20050;-45
2022/01/10 11:42:44;;;;;;;18.48;10.60;;;7.70;99.90;;;;;;5053997;28;20058;-48
2022/01/10 11:45:12;;;;;;;20.90;10.63;;;7.50;99.90;;;;;;5055091;28;20035;-49
2022/01/10 11:48:02;;;;;;;21.85;10.30;;;7.20;99.90;;;;;;5075017;28;20492;-47
2022/01/10 11:50:31;;;;;;;24.52;10.80;;;7.20;99.90;;;;;;5056860;28;20033;-44
2022/01/10 11:53:00;;;;;;;18.67;9.73;;;7.20;99.90;;;;;;5057622;28;20028;-46
2022/01/10 11:55:38;;;;;;;21.52;11.32;;;7.30;99.90;;;;;;5056868;28;20167;-46
2022/01/10 11:58:24;;;;;;;24.27;10.10;;;7.30;99.90;;;;;;5057915;28;20120;-45
2022/01/10 12:00:53;;;;;;;20.92;9.98;;;7.20;99.90;;;;;;5057162;28;20020;-49
2022/01/10 12:03:20;;;;;;;21.05;9.68;;;7.00;99.90;;;;;;5057173;28;20029;-52
2022/01/10 12:05:46;;;;;;;19.02;9.18;;;7.10;99.90;;;;;;5057253;28;20500;-46
2022/01/10 12:08:12;;;;;;;22.70;9.32;;;7.00;99.90;;;;;;5057455;28;20495;-50
2022/01/10 12:10:38;;;;;;;19.15;9.05;;;6.90;99.90;;;;;;5056390;28;20035;-50
2022/01/10 12:13:09;;;;;;;18.52;10.05;;;7.00;99.90;;;;;;5056607;28;20020;-50
2022/01/10 12:15:36;;;;;;;26.33;9.50;;;7.00;99.90;;;;;;5057597;28;20364;-48
2022/01/10 12:18:03;;;;;;;17.60;9.35;;;7.00;99.90;;;;;;5055770;28;20542;-47
2022/01/10 12:20:30;;;;;;;21.25;10.50;;;7.00;99.90;;;;;;5055255;28;20021;-50
2022/01/10 12:22:56;;;;;;;18.85;9.00;;;7.20;99.90;;;;;;5055719;28;20053;-46
2022/01/10 12:25:23;;;;;;;17.02;9.05;;;7.20;99.90;;;;;;5055799;28;20046;-47
2022/01/10 12:27:51;;;;;;;18.92;8.70;;;7.20;99.90;;;;;;5083323;28;20025;-46
2022/01/10 12:30:17;;;;;;;15.25;7.32;;;7.20;99.90;;;;;;5072564;28;20461;-45
2022/01/10 12:32:45;;;;;;;18.92;8.95;;;7.10;99.90;;;;;;5058964;28;20028;-45
2022/01/10 12:35:11;;;;;;;17.05;9.13;;;7.00;99.90;;;;;;5056213;28;20074;-47
2022/01/10 12:37:37;;;;;;;19.27;8.23;;;7.00;99.90;;;;;;5055997;28;20024;-47
2022/01/10 12:40:06;;;;;;;16.35;7.55;;;7.00;99.90;;;;;;5055487;28;20028;-46
2022/01/10 12:42:32;;;;;;;16.83;7.68;;;7.00;99.90;;;;;;5055567;28;20077;-49
2022/01/10 12:44:58;;;;;;;14.80;8.45;;;7.00;99.90;;;;;;5055880;28;20068;-49
2022/01/10 12:47:24;;;;;;;20.67;8.57;;;6.90;99.90;;;;;;5056863;28;20319;-47
2022/01/10 12:49:52;;;;;;;21.08;9.93;;;6.80;99.90;;;;;;5072625;28;20033;-48
2022/01/10 12:52:21;;;;;;;21.00;8.98;;;6.80;99.90;;;;;;5055873;28;20016;-45